createdAt,value
2023-01-20T00:00:35.030Z,2.68
2023-01-20T00:04:36.582Z,2.68
2023-01-20T00:08:38.960Z,2.66
2023-01-20T00:12:40.486Z,2.63
2023-01-20T00:16:42.345Z,2.58
2023-01-20T00:20:43.937Z,2.58
2023-01-20T00:24:45.515Z,2.56
2023-01-20T00:28:48.147Z,2.56
2023-01-20T00:32:49.702Z,2.51
2023-01-20T00:36:51.282Z,2.55
2023-01-20T00:40:56.031Z,2.51
2023-01-20T00:44:57.624Z,2.44
2023-01-20T00:48:59.144Z,2.45
2023-01-20T00:53:00.686Z,2.45
2023-01-20T00:57:02.261Z,2.47
2023-01-20T01:01:04.088Z,2.48
2023-01-20T01:05:06.134Z,2.50
2023-01-20T01:09:07.687Z,2.51
2023-01-20T01:13:09.513Z,2.48
2023-01-20T01:17:11.058Z,2.53
2023-01-20T01:21:16.332Z,2.51
2023-01-20T01:25:18.548Z,2.55
2023-01-20T01:29:20.491Z,2.53
2023-01-20T01:33:22.121Z,2.56
2023-01-20T01:37:23.808Z,2.55
2023-01-20T01:41:25.415Z,2.50
2023-01-20T01:45:29.273Z,2.51
2023-01-20T01:49:32.869Z,2.55
2023-01-20T01:53:41.663Z,2.56
2023-01-20T01:57:43.627Z,2.55
2023-01-20T02:01:49.515Z,2.55
2023-01-20T02:05:53.926Z,2.53
2023-01-20T02:09:55.936Z,2.51
2023-01-20T02:13:57.500Z,2.50
2023-01-20T02:18:05.671Z,2.48
2023-01-20T02:22:17.627Z,2.43
2023-01-20T02:26:42.832Z,2.43
2023-01-20T02:30:58.419Z,2.32
2023-01-20T02:35:07.888Z,2.29
2023-01-20T02:39:27.373Z,2.29
2023-01-20T02:43:37.906Z,2.25
2023-01-20T02:48:01.930Z,2.22
2023-01-20T02:52:10.461Z,2.18
2023-01-20T02:56:12.948Z,2.20
2023-01-20T03:00:21.505Z,2.19
2023-01-20T03:04:27.791Z,2.18
2023-01-20T03:08:32.229Z,2.14
2023-01-20T03:12:42.219Z,2.15
2023-01-20T03:16:48.048Z,2.09
2023-01-20T03:20:49.663Z,2.12
2023-01-20T03:24:52.363Z,2.12
2023-01-20T03:28:57.929Z,2.08
2023-01-20T03:33:00.582Z,2.08
2023-01-20T03:37:03.714Z,2.05
2023-01-20T03:41:37.300Z,2.05
2023-01-20T03:45:52.246Z,2.00
2023-01-20T03:50:05.449Z,1.95
2023-01-20T03:54:15.334Z,1.88
2023-01-20T03:58:22.013Z,1.71
2023-01-20T04:02:24.092Z,1.63
2023-01-20T04:06:27.819Z,1.60
2023-01-20T04:10:31.148Z,1.56
2023-01-20T04:14:35.098Z,1.50
2023-01-20T04:18:41.503Z,1.49
2023-01-20T04:22:50.593Z,1.46
2023-01-20T04:26:52.162Z,1.42
2023-01-20T04:30:53.914Z,1.44
2023-01-20T04:34:55.520Z,1.43
2023-01-20T04:38:57.059Z,1.42
2023-01-20T04:42:58.600Z,1.38
2023-01-20T04:47:00.178Z,1.35
2023-01-20T04:51:05.078Z,1.32
2023-01-20T04:55:07.051Z,1.29
2023-01-20T04:59:08.677Z,1.28
2023-01-20T05:03:10.299Z,1.25
2023-01-20T05:07:12.564Z,1.24
2023-01-20T05:11:14.413Z,1.18
2023-01-20T05:15:16.448Z,1.17
2023-01-20T05:19:18.369Z,1.14
2023-01-20T05:23:19.948Z,1.10
2023-01-20T05:27:21.472Z,1.06
2023-01-20T05:31:23.132Z,1.07
2023-01-20T05:35:24.718Z,1.04
2023-01-20T05:39:26.568Z,0.98
2023-01-20T05:43:28.282Z,0.95
2023-01-20T05:47:29.825Z,0.93
2023-01-20T05:51:32.213Z,0.92
2023-01-20T05:55:33.808Z,0.90
2023-01-20T05:59:35.424Z,0.89
2023-01-20T06:03:38.030Z,0.90
2023-01-20T06:07:39.685Z,0.86
2023-01-20T06:11:41.254Z,0.80
2023-01-20T06:15:42.795Z,0.77
2023-01-20T06:19:44.366Z,0.75
2023-01-20T06:23:45.969Z,0.71
2023-01-20T06:27:47.479Z,0.68
2023-01-20T06:31:49.031Z,0.67
2023-01-20T06:35:54.287Z,0.62
2023-01-20T06:39:55.817Z,0.60
2023-01-20T06:43:58.025Z,0.59
2023-01-20T06:47:59.538Z,0.52
2023-01-20T06:52:01.215Z,0.49
2023-01-20T06:56:03.126Z,0.45
2023-01-20T07:00:05.513Z,0.45
2023-01-20T07:04:08.206Z,0.49
2023-01-20T07:08:09.754Z,0.48
2023-01-20T07:12:11.301Z,0.48
2023-01-20T07:16:15.714Z,0.45
2023-01-20T07:20:17.655Z,0.43
2023-01-20T07:24:19.286Z,0.41
2023-01-20T07:28:20.927Z,0.41
2023-01-20T07:32:22.563Z,0.43
2023-01-20T07:36:24.565Z,0.38
2023-01-20T07:40:26.314Z,0.41
2023-01-20T07:44:27.861Z,0.44
2023-01-20T07:48:31.576Z,0.48
2023-01-20T07:52:33.165Z,0.48
2023-01-20T07:56:34.980Z,0.52
2023-01-20T08:00:36.473Z,0.49
2023-01-20T08:04:38.067Z,0.52
2023-01-20T08:08:40.175Z,0.53
2023-01-20T08:12:41.742Z,0.60
2023-01-20T08:16:43.475Z,0.64
2023-01-20T08:20:45.162Z,0.71
2023-01-20T08:24:46.805Z,0.75
2023-01-20T08:28:48.452Z,0.84
2023-01-20T08:32:49.981Z,0.89
2023-01-20T08:36:54.043Z,0.95
2023-01-20T08:40:55.628Z,1.00
2023-01-20T08:44:57.346Z,1.07
2023-01-20T08:48:58.897Z,1.13
2023-01-20T08:53:00.428Z,1.20
2023-01-20T08:57:02.066Z,1.25
2023-01-20T09:01:09.479Z,1.31
2023-01-20T09:05:11.324Z,1.34
2023-01-20T09:09:14.519Z,1.38
2023-01-20T09:13:16.143Z,1.47
2023-01-20T09:17:17.709Z,1.53
2023-01-20T09:21:19.253Z,1.61
2023-01-20T09:25:21.090Z,1.68
2023-01-20T09:29:22.850Z,1.77
2023-01-20T09:33:24.437Z,1.82
2023-01-20T09:37:44.429Z,1.95
2023-01-20T09:42:24.727Z,2.18
2023-01-20T09:47:13.961Z,2.37
2023-01-20T09:51:43.581Z,2.53
2023-01-20T09:55:50.114Z,2.68
2023-01-20T10:00:18.650Z,2.76
2023-01-20T10:04:54.727Z,2.87
2023-01-20T10:09:23.752Z,2.92
2023-01-20T10:13:32.695Z,2.97
2023-01-20T10:17:37.109Z,2.99
2023-01-20T10:22:06.189Z,2.98
2023-01-20T10:26:13.246Z,3.07
2023-01-20T10:30:30.126Z,3.20
2023-01-20T10:34:46.484Z,3.49
2023-01-20T10:39:04.359Z,3.68
2023-01-20T10:43:14.313Z,3.78
2023-01-20T10:47:29.791Z,3.89
2023-01-20T10:52:19.543Z,3.96
2023-01-20T10:56:43.910Z,4.04
2023-01-20T11:00:45.535Z,4.13
2023-01-20T11:04:57.289Z,4.26
2023-01-20T11:09:11.766Z,4.38
2023-01-20T11:13:13.368Z,4.42
2023-01-20T11:17:18.515Z,4.39
2023-01-20T11:21:24.185Z,4.35
2023-01-20T11:25:27.570Z,4.34
2023-01-20T11:29:31.053Z,4.35
2023-01-20T11:33:32.631Z,4.42
2023-01-20T11:37:39.250Z,4.51
2023-01-20T11:41:40.850Z,4.65
2023-01-20T11:45:42.530Z,4.75
2023-01-20T11:49:44.342Z,4.83
2023-01-20T11:53:46.841Z,4.83
2023-01-20T11:57:51.383Z,4.80
2023-01-20T12:02:01.510Z,4.80
2023-01-20T12:06:08.233Z,4.72
2023-01-20T12:10:21.828Z,4.69
2023-01-20T12:14:28.757Z,4.69
2023-01-20T12:18:33.295Z,4.68
2023-01-20T12:22:42.057Z,4.69
2023-01-20T12:26:43.894Z,4.68
2023-01-20T12:31:02.726Z,4.69
2023-01-20T12:35:04.505Z,4.67
2023-01-20T12:39:23.275Z,4.62
2023-01-20T12:43:36.203Z,4.59
2023-01-20T12:47:57.971Z,4.61
2023-01-20T12:52:20.192Z,4.64
2023-01-20T12:56:45.249Z,4.67
2023-01-20T13:01:04.257Z,4.72
2023-01-20T13:05:26.021Z,4.86
2023-01-20T13:09:58.549Z,4.90
2023-01-20T13:14:24.399Z,4.96
2023-01-20T13:18:44.565Z,5.06
2023-01-20T13:22:46.224Z,5.12
2023-01-20T13:26:49.169Z,5.08
2023-01-20T13:30:54.584Z,5.02
2023-01-20T13:34:57.157Z,4.93
2023-01-20T13:39:29.947Z,4.84
2023-01-20T13:43:31.522Z,4.72
2023-01-20T13:47:57.854Z,4.65
2023-01-20T13:51:59.500Z,4.59
2023-01-20T13:56:02.544Z,4.56
2023-01-20T14:00:12.059Z,4.54
2023-01-20T14:04:20.346Z,4.62
2023-01-20T14:08:23.458Z,4.77
2023-01-20T14:12:25.731Z,4.93
2023-01-20T14:16:28.479Z,4.96
2023-01-20T14:20:30.761Z,4.88
2023-01-20T14:24:37.732Z,4.77
2023-01-20T14:28:54.286Z,4.77
2023-01-20T14:32:55.967Z,4.75
2023-01-20T14:37:01.204Z,4.79
2023-01-20T14:41:02.758Z,4.74
2023-01-20T14:45:21.864Z,4.84
2023-01-20T14:49:33.638Z,4.86
2023-01-20T14:53:35.352Z,4.79
2023-01-20T14:57:44.456Z,4.72
2023-01-20T15:01:55.225Z,4.64
2023-01-20T15:06:05.025Z,4.54
2023-01-20T15:10:07.523Z,4.49
2023-01-20T15:14:10.887Z,4.42
2023-01-20T15:18:18.457Z,4.34
2023-01-20T15:22:21.962Z,4.25
2023-01-20T15:26:28.990Z,4.17
2023-01-20T15:30:30.717Z,4.10
2023-01-20T15:34:32.293Z,4.08
2023-01-20T15:38:33.890Z,4.02
2023-01-20T15:42:35.456Z,3.98
2023-01-20T15:46:38.482Z,3.96
2023-01-20T15:50:41.869Z,3.90
2023-01-20T15:54:43.440Z,3.89
2023-01-20T15:58:46.028Z,3.88
2023-01-20T16:02:48.056Z,3.84
2023-01-20T16:06:49.690Z,3.82
2023-01-20T16:10:51.299Z,3.84
2023-01-20T16:14:52.815Z,3.82
2023-01-20T16:18:54.354Z,3.82
2023-01-20T16:22:57.273Z,3.82
2023-01-20T16:26:59.155Z,3.82
2023-01-20T16:31:02.302Z,3.84
2023-01-20T16:35:04.196Z,3.84
2023-01-20T16:39:05.817Z,3.86
2023-01-20T16:43:10.860Z,3.84
2023-01-20T16:47:13.474Z,3.82
2023-01-20T16:51:17.160Z,3.84
2023-01-20T16:55:18.812Z,3.88
2023-01-20T16:59:20.398Z,3.90
2023-01-20T17:03:26.947Z,3.86
2023-01-20T17:07:28.535Z,3.90
2023-01-20T17:11:33.137Z,3.86
2023-01-20T17:15:34.915Z,3.75
2023-01-20T17:19:37.082Z,3.72
2023-01-20T17:23:38.632Z,3.72
2023-01-20T17:27:40.173Z,3.70
2023-01-20T17:31:42.989Z,3.59
2023-01-20T17:35:46.990Z,3.56
2023-01-20T17:39:48.698Z,3.52
2023-01-20T17:43:50.339Z,3.41
2023-01-20T17:47:52.191Z,3.35
2023-01-20T17:51:53.962Z,3.30
2023-01-20T17:56:10.983Z,3.23
2023-01-20T18:00:14.564Z,3.20
2023-01-20T18:04:16.301Z,3.23
2023-01-20T18:08:17.879Z,3.19
2023-01-20T18:12:21.440Z,3.13
2023-01-20T18:16:26.415Z,3.08
2023-01-20T18:20:28.011Z,3.05
2023-01-20T18:24:29.638Z,3.04
2023-01-20T18:28:32.281Z,3.01
2023-01-20T18:32:33.820Z,2.98
2023-01-20T18:36:40.513Z,2.95
2023-01-20T18:40:42.045Z,2.84
2023-01-20T18:44:43.626Z,2.81
2023-01-20T18:48:47.295Z,2.79
2023-01-20T18:52:48.955Z,2.69
2023-01-20T18:56:50.533Z,2.68
2023-01-20T19:00:52.135Z,2.62
2023-01-20T19:04:53.735Z,2.56
2023-01-20T19:08:56.800Z,2.50
2023-01-20T19:12:58.498Z,2.47
2023-01-20T19:17:00.112Z,2.45
2023-01-20T19:21:09.345Z,2.44
2023-01-20T19:25:11.064Z,2.44
2023-01-20T19:29:15.740Z,2.40
2023-01-20T19:33:17.487Z,2.37
2023-01-20T19:37:19.081Z,2.38
2023-01-20T19:41:23.526Z,2.33
2023-01-20T19:45:28.853Z,2.36
2023-01-20T19:49:35.298Z,2.33
2023-01-20T19:53:37.777Z,2.32
2023-01-20T19:57:39.307Z,2.30
2023-01-20T20:01:41.061Z,2.30
2023-01-20T20:05:43.994Z,2.27
2023-01-20T20:09:45.580Z,2.26
2023-01-20T20:13:47.315Z,2.26
2023-01-20T20:17:48.907Z,2.27
2023-01-20T20:21:50.571Z,2.26
2023-01-20T20:25:56.252Z,2.26
2023-01-20T20:30:01.210Z,2.25
2023-01-20T20:34:05.901Z,2.23
2023-01-20T20:38:07.583Z,2.23
2023-01-20T20:42:09.284Z,2.22
2023-01-20T20:46:14.129Z,2.22
2023-01-20T20:50:16.510Z,2.23
2023-01-20T20:54:19.131Z,2.25
2023-01-20T20:58:20.851Z,2.23
2023-01-20T21:02:22.489Z,2.20
2023-01-20T21:06:24.177Z,2.18
2023-01-20T21:10:26.031Z,2.19
2023-01-20T21:14:27.586Z,2.15
2023-01-20T21:18:32.356Z,2.15
2023-01-20T21:22:34.404Z,2.12
2023-01-20T21:26:36.350Z,2.07
2023-01-20T21:30:38.132Z,2.04
2023-01-20T21:34:39.754Z,2.02
2023-01-20T21:38:46.401Z,1.98
2023-01-20T21:42:48.049Z,2.00
2023-01-20T21:46:49.695Z,1.98
2023-01-20T21:51:10.271Z,1.98
2023-01-20T21:55:19.102Z,1.93
2023-01-20T21:59:20.786Z,1.92
2023-01-20T22:03:22.451Z,1.89
2023-01-20T22:07:24.495Z,1.89
2023-01-20T22:11:26.899Z,1.92
2023-01-20T22:15:29.747Z,1.88
2023-01-20T22:19:31.900Z,1.90
2023-01-20T22:23:36.191Z,1.86
2023-01-20T22:27:37.695Z,1.85
2023-01-20T22:31:39.547Z,1.82
2023-01-20T22:35:41.363Z,1.81
2023-01-20T22:39:42.884Z,1.82
2023-01-20T22:43:44.460Z,1.82
2023-01-20T22:47:46.118Z,1.77
2023-01-20T22:51:47.831Z,1.79
2023-01-20T22:56:00.491Z,1.79
2023-01-20T23:00:04.090Z,1.75
2023-01-20T23:04:06.474Z,1.71
2023-01-20T23:08:08.071Z,1.70
2023-01-20T23:12:09.651Z,1.71
2023-01-20T23:16:17.508Z,1.72
2023-01-20T23:20:19.262Z,1.70
2023-01-20T23:24:20.868Z,1.74
2023-01-20T23:28:22.407Z,1.67
2023-01-20T23:32:24.026Z,1.71
2023-01-20T23:36:26.342Z,1.71
2023-01-20T23:40:30.174Z,1.71
2023-01-20T23:44:31.758Z,1.68
2023-01-20T23:48:34.770Z,1.70
2023-01-20T23:52:36.593Z,1.71
2023-01-20T23:56:38.150Z,1.72
